Terminal Aerodrome Forecast
Issued by NWS Cleveland, OH

Home | Current Version | Previous Version | Graphics & Text | Print | Product List | Glossary On
Versions: 1 2 3 4 5 6 7 8 9 10 11 12 13 14 15 16
000
FTUS41 KCLE 251738
TAFERI
TAF
KERI 251738Z 2518/2618 26018G28KT P6SM OVC040
     FM252000 27020G32KT P6SM OVC025
      TEMPO 2521/2601 5SM -SHSN BKN015
     FM260200 27014G24KT 5SM -SHSN OVC015=

USA.gov is the U.S. government's official web portal to all federal, state and local government web resources and services.